sensor_id;sensor_type;location;lat;lon;timestamp;pressure;altitude;pressure_sealevel;temperature;humidity
73551;BME280;61816;53.582;10.096;2023-05-12T00:02:01;54440.53;;;-144.73;100.00
73551;BME280;61816;53.582;10.096;2023-05-12T00:04:27;54415.91;;;-144.73;100.00
73551;BME280;61816;53.582;10.096;2023-05-12T00:06:52;54415.91;;;-144.73;100.00
73551;BME280;61816;53.582;10.096;2023-05-12T00:09:17;54407.69;;;-144.73;100.00
73551;BME280;61816;53.582;10.096;2023-05-12T00:11:43;54407.69;;;-144.73;100.00
73551;BME280;61816;53.582;10.096;2023-05-12T00:14:08;54391.28;;;-144.73;100.00
73551;BME280;61816;53.582;10.096;2023-05-12T00:16:33;54424.13;;;-144.73;100.00
73551;BME280;61816;53.582;10.096;2023-05-12T00:18:59;54424.13;;;-144.73;100.00
73551;BME280;61816;53.582;10.096;2023-05-12T00:21:24;54399.50;;;-144.73;100.00
73551;BME280;61816;53.582;10.096;2023-05-12T00:23:50;54432.31;;;-144.73;100.00
73551;BME280;61816;53.582;10.096;2023-05-12T00:26:15;54391.28;;;-144.73;100.00
73551;BME280;61816;53.582;10.096;2023-05-12T00:28:41;54436.44;;;-144.73;100.00
73551;BME280;61816;53.582;10.096;2023-05-12T00:31:06;54461.06;;;-144.73;100.00
73551;BME280;61816;53.582;10.096;2023-05-12T00:33:32;54432.31;;;-144.73;100.00
73551;BME280;61816;53.582;10.096;2023-05-12T00:35:57;54411.81;;;-144.73;100.00
73551;BME280;61816;53.582;10.096;2023-05-12T00:38:25;54428.22;;;-144.73;100.00
73551;BME280;61816;53.582;10.096;2023-05-12T00:40:50;54428.22;;;-144.73;100.00
73551;BME280;61816;53.582;10.096;2023-05-12T00:43:15;54420.00;;;-144.73;100.00
73551;BME280;61816;53.582;10.096;2023-05-12T00:45:41;54424.13;;;-144.73;100.00
73551;BME280;61816;53.582;10.096;2023-05-12T00:48:07;54415.91;;;-144.73;100.00
73551;BME280;61816;53.582;10.096;2023-05-12T00:50:33;54424.13;;;-144.73;100.00
73551;BME280;61816;53.582;10.096;2023-05-12T00:53:00;54432.31;;;-144.73;100.00
73551;BME280;61816;53.582;10.096;2023-05-12T00:55:25;54395.38;;;-144.73;100.00
73551;BME280;61816;53.582;10.096;2023-05-12T00:57:50;54383.06;;;-144.73;100.00
73551;BME280;61816;53.582;10.096;2023-05-12T01:00:16;54440.53;;;-144.73;100.00
73551;BME280;61816;53.582;10.096;2023-05-12T01:02:43;54411.81;;;-144.73;100.00
73551;BME280;61816;53.582;10.096;2023-05-12T01:05:09;54506.22;;;-144.73;100.00
73551;BME280;61816;53.582;10.096;2023-05-12T01:07:35;54426.16;;;-144.73;100.00
73551;BME280;61816;53.582;10.096;2023-05-12T01:10:00;54436.44;;;-144.73;100.00
73551;BME280;61816;53.582;10.096;2023-05-12T01:12:26;54473.38;;;-144.73;100.00
73551;BME280;61816;53.582;10.096;2023-05-12T01:14:55;54440.53;;;-144.73;100.00
73551;BME280;61816;53.582;10.096;2023-05-12T01:17:27;54424.13;;;-144.73;100.00
73551;BME280;61816;53.582;10.096;2023-05-12T01:19:56;54430.28;;;-144.73;100.00
73551;BME280;61816;53.582;10.096;2023-05-12T01:22:25;54436.44;;;-144.73;100.00
73551;BME280;61816;53.582;10.096;2023-05-12T01:24:57;54438.50;;;-144.73;100.00
73551;BME280;61816;53.582;10.096;2023-05-12T01:27:24;54452.84;;;-144.73;100.00
73551;BME280;61816;53.582;10.096;2023-05-12T01:29:52;54389.22;;;-144.73;99.94
73551;BME280;61816;53.582;10.096;2023-05-12T01:32:19;54368.69;;;-144.73;99.29
73551;BME280;61816;53.582;10.096;2023-05-12T01:34:45;54422.06;;;-144.73;98.87
73551;BME280;61816;53.582;10.096;2023-05-12T01:37:11;54444.66;;;-144.73;99.45
73551;BME280;61816;53.582;10.096;2023-05-12T01:39:37;54469.28;;;-144.73;98.48
73551;BME280;61816;53.582;10.096;2023-05-12T01:42:03;54424.13;;;-144.73;97.76
73551;BME280;61816;53.582;10.096;2023-05-12T01:44:29;54415.91;;;-144.73;96.79
73551;BME280;61816;53.582;10.096;2023-05-12T01:46:54;54450.81;;;-144.73;97.98
73551;BME280;61816;53.582;10.096;2023-05-12T01:49:20;54407.69;;;-144.73;97.16
73551;BME280;61816;53.582;10.096;2023-05-12T01:51:46;54444.66;;;-144.73;97.39
73551;BME280;61816;53.582;10.096;2023-05-12T01:54:11;54420.00;;;-144.73;95.54
73551;BME280;61816;53.582;10.096;2023-05-12T01:56:37;54452.84;;;-144.73;96.08
73551;BME280;61816;53.582;10.096;2023-05-12T01:59:02;54420.00;;;-144.73;97.03
73551;BME280;61816;53.582;10.096;2023-05-12T02:01:27;54424.13;;;-144.73;97.63
73551;BME280;61816;53.582;10.096;2023-05-12T02:03:53;54393.34;;;-144.73;96.79
73551;BME280;61816;53.582;10.096;2023-05-12T02:06:20;54383.06;;;-144.73;96.66
73551;BME280;61816;53.582;10.096;2023-05-12T02:08:45;54383.06;;;-144.73;95.09
73551;BME280;61816;53.582;10.096;2023-05-12T02:11:10;54407.69;;;-144.73;93.92
73551;BME280;61816;53.582;10.096;2023-05-12T02:13:36;54395.38;;;-144.73;93.93
73551;BME280;61816;53.582;10.096;2023-05-12T02:16:01;54432.31;;;-144.73;94.17
73551;BME280;61816;53.582;10.096;2023-05-12T02:18:27;54426.16;;;-144.73;92.76
73551;BME280;61816;53.582;10.096;2023-05-12T02:20:52;54391.28;;;-144.73;94.08
73551;BME280;61816;53.582;10.096;2023-05-12T02:23:18;54411.81;;;-144.73;91.81
73551;BME280;61816;53.582;10.096;2023-05-12T02:25:43;54432.31;;;-144.73;92.16
73551;BME280;61816;53.582;10.096;2023-05-12T02:28:08;54407.69;;;-144.73;92.31
73551;BME280;61816;53.582;10.096;2023-05-12T02:30:36;54422.06;;;-144.73;91.35
73551;BME280;61816;53.582;10.096;2023-05-12T02:33:01;54432.31;;;-144.73;90.44
73551;BME280;61816;53.582;10.096;2023-05-12T02:35:29;54391.28;;;-144.73;90.69
73551;BME280;61816;53.582;10.096;2023-05-12T02:37:54;54452.84;;;-144.73;90.27
73551;BME280;61816;53.582;10.096;2023-05-12T02:40:20;54415.91;;;-144.73;90.33
73551;BME280;61816;53.582;10.096;2023-05-12T02:42:45;54415.91;;;-144.73;90.02
73551;BME280;61816;53.582;10.096;2023-05-12T02:45:11;54428.22;;;-144.73;90.58
73551;BME280;61816;53.582;10.096;2023-05-12T02:47:36;54415.91;;;-144.73;90.30
73551;BME280;61816;53.582;10.096;2023-05-12T02:50:02;54411.81;;;-144.73;89.57
73551;BME280;61816;53.582;10.096;2023-05-12T02:52:27;54407.69;;;-144.73;89.92
73551;BME280;61816;53.582;10.096;2023-05-12T02:54:53;54432.31;;;-144.73;89.56
73551;BME280;61816;53.582;10.096;2023-05-12T02:57:18;54413.84;;;-144.73;89.22
73551;BME280;61816;53.582;10.096;2023-05-12T02:59:43;54397.44;;;-144.73;90.23
73551;BME280;61816;53.582;10.096;2023-05-12T03:02:08;54411.81;;;-144.73;89.22
73551;BME280;61816;53.582;10.096;2023-05-12T03:04:34;54407.69;;;-144.73;89.64
73551;BME280;61816;53.582;10.096;2023-05-12T03:06:59;54428.22;;;-144.73;90.19
73551;BME280;61816;53.582;10.096;2023-05-12T03:09:24;54395.38;;;-144.73;89.87
73551;BME280;61816;53.582;10.096;2023-05-12T03:11:50;54469.28;;;-144.73;90.02
73551;BME280;61816;53.582;10.096;2023-05-12T03:14:15;54391.28;;;-144.73;89.41
73551;BME280;61816;53.582;10.096;2023-05-12T03:16:40;54432.31;;;-144.73;89.42
73551;BME280;61816;53.582;10.096;2023-05-12T03:19:06;54407.69;;;-144.73;89.92
73551;BME280;61816;53.582;10.096;2023-05-12T03:21:31;54391.28;;;-144.73;89.56
73551;BME280;61816;53.582;10.096;2023-05-12T03:23:56;54391.28;;;-144.73;90.17
73551;BME280;61816;53.582;10.096;2023-05-12T03:26:22;54420.00;;;-144.73;90.83
73551;BME280;61816;53.582;10.096;2023-05-12T03:28:47;54415.91;;;-144.73;89.64
73551;BME280;61816;53.582;10.096;2023-05-12T03:31:12;54413.84;;;-144.73;90.14
73551;BME280;61816;53.582;10.096;2023-05-12T03:33:38;54436.44;;;-144.73;90.48
73551;BME280;61816;53.582;10.096;2023-05-12T03:36:03;54424.13;;;-144.73;89.79
73551;BME280;61816;53.582;10.096;2023-05-12T03:38:29;54411.81;;;-144.73;90.85
73551;BME280;61816;53.582;10.096;2023-05-12T03:41:04;54436.44;;;-144.73;90.50
73551;BME280;61816;53.582;10.096;2023-05-12T03:43:31;54366.66;;;-144.73;88.98
73551;BME280;61816;53.582;10.096;2023-05-12T03:46:00;54391.28;;;-144.73;89.22
73551;BME280;61816;53.582;10.096;2023-05-12T03:48:25;54364.59;;;-144.73;88.76
73551;BME280;61816;53.582;10.096;2023-05-12T03:50:54;54411.81;;;-144.73;89.29
73551;BME280;61816;53.582;10.096;2023-05-12T03:53:19;54370.75;;;-144.73;89.28
73551;BME280;61816;53.582;10.096;2023-05-12T03:55:45;54354.34;;;-144.73;89.16
73551;BME280;61816;53.582;10.096;2023-05-12T03:58:10;54407.69;;;-144.73;90.66
73551;BME280;61816;53.582;10.096;2023-05-12T04:00:35;54407.69;;;-144.73;90.37
73551;BME280;61816;53.582;10.096;2023-05-12T04:03:01;54415.91;;;-144.73;90.99
73551;BME280;61816;53.582;10.096;2023-05-12T04:05:27;54420.00;;;-144.73;90.60
73551;BME280;61816;53.582;10.096;2023-05-12T04:07:52;54378.97;;;-144.73;90.71
73551;BME280;61816;53.582;10.096;2023-05-12T04:10:17;54395.38;;;-144.73;90.24
73551;BME280;61816;53.582;10.096;2023-05-12T04:12:43;54424.13;;;-144.73;90.80
73551;BME280;61816;53.582;10.096;2023-05-12T04:15:08;54411.81;;;-144.73;91.43
73551;BME280;61816;53.582;10.096;2023-05-12T04:17:34;54399.50;;;-144.73;92.12
73551;BME280;61816;53.582;10.096;2023-05-12T04:19:59;54383.06;;;-144.73;91.44
73551;BME280;61816;53.582;10.096;2023-05-12T04:22:25;54393.34;;;-144.73;89.78
73551;BME280;61816;53.582;10.096;2023-05-12T04:24:50;54370.75;;;-144.73;89.80
73551;BME280;61816;53.582;10.096;2023-05-12T04:27:16;54422.06;;;-144.73;89.94
73551;BME280;61816;53.582;10.096;2023-05-12T04:29:41;54370.75;;;-144.73;89.90
73551;BME280;61816;53.582;10.096;2023-05-12T04:32:07;54411.81;;;-144.73;89.80
73551;BME280;61816;53.582;10.096;2023-05-12T04:34:32;54395.38;;;-144.73;88.53
73551;BME280;61816;53.582;10.096;2023-05-12T04:36:57;54393.34;;;-144.73;89.51
73551;BME280;61816;53.582;10.096;2023-05-12T04:39:23;54411.81;;;-144.73;90.37
73551;BME280;61816;53.582;10.096;2023-05-12T04:41:48;54383.06;;;-144.73;89.61
73551;BME280;61816;53.582;10.096;2023-05-12T04:44:14;54428.22;;;-144.73;89.28
73551;BME280;61816;53.582;10.096;2023-05-12T04:46:39;54395.38;;;-144.73;89.49
73551;BME280;61816;53.582;10.096;2023-05-12T04:49:05;54413.84;;;-144.73;89.68
73551;BME280;61816;53.582;10.096;2023-05-12T04:51:30;54391.28;;;-144.73;89.84
73551;BME280;61816;53.582;10.096;2023-05-12T04:53:56;54360.50;;;-144.73;88.92
73551;BME280;61816;53.582;10.096;2023-05-12T04:56:21;54422.06;;;-144.73;87.56
73551;BME280;61816;53.582;10.096;2023-05-12T04:58:47;54399.50;;;-144.73;87.50
73551;BME280;61816;53.582;10.096;2023-05-12T05:01:12;54424.13;;;-144.73;87.58
73551;BME280;61816;53.582;10.096;2023-05-12T05:03:38;54432.31;;;-144.73;87.21
73551;BME280;61816;53.582;10.096;2023-05-12T05:06:04;54415.91;;;-144.73;86.83
73551;BME280;61816;53.582;10.096;2023-05-12T05:08:29;54407.69;;;-144.73;85.38
73551;BME280;61816;53.582;10.096;2023-05-12T05:10:54;54395.38;;;-144.73;86.08
73551;BME280;61816;53.582;10.096;2023-05-12T05:13:19;54407.69;;;-144.73;87.33
73551;BME280;61816;53.582;10.096;2023-05-12T05:15:49;54378.97;;;-144.73;87.65
73551;BME280;61816;53.582;10.096;2023-05-12T05:18:15;54415.91;;;-144.73;85.01
73551;BME280;61816;53.582;10.096;2023-05-12T05:20:40;54415.91;;;-144.73;83.93
73551;BME280;61816;53.582;10.096;2023-05-12T05:23:06;54378.97;;;-144.73;83.78
73551;BME280;61816;53.582;10.096;2023-05-12T05:25:33;54395.38;;;-144.73;83.18
73551;BME280;61816;53.582;10.096;2023-05-12T05:27:58;54417.97;;;-144.73;83.08
73551;BME280;61816;53.582;10.096;2023-05-12T05:30:24;54411.81;;;-144.73;83.38
73551;BME280;61816;53.582;10.096;2023-05-12T05:32:49;54428.22;;;-144.73;83.19
73551;BME280;61816;53.582;10.096;2023-05-12T05:35:15;54383.06;;;-144.73;82.61
73551;BME280;61816;53.582;10.096;2023-05-12T05:37:40;54395.38;;;-144.73;82.78
73551;BME280;61816;53.582;10.096;2023-05-12T05:40:06;54389.22;;;-144.73;82.95
73551;BME280;61816;53.582;10.096;2023-05-12T05:42:32;54354.34;;;-144.73;82.99
73551;BME280;61816;53.582;10.096;2023-05-12T05:44:57;54415.91;;;-144.73;82.63
73551;BME280;61816;53.582;10.096;2023-05-12T05:47:23;54415.91;;;-144.73;82.68
73551;BME280;61816;53.582;10.096;2023-05-12T05:49:48;54411.81;;;-144.73;81.71
73551;BME280;61816;53.582;10.096;2023-05-12T05:52:14;54370.75;;;-144.73;81.89
73551;BME280;61816;53.582;10.096;2023-05-12T05:54:39;54415.91;;;-144.73;81.19
73551;BME280;61816;53.582;10.096;2023-05-12T05:57:05;54428.22;;;-144.73;80.52
73551;BME280;61816;53.582;10.096;2023-05-12T05:59:30;54366.66;;;-144.73;80.97
73551;BME280;61816;53.582;10.096;2023-05-12T06:01:56;54378.97;;;-144.73;80.72
73551;BME280;61816;53.582;10.096;2023-05-12T06:04:22;54383.06;;;-144.73;79.18
73551;BME280;61816;53.582;10.096;2023-05-12T06:06:47;54378.97;;;-144.73;79.76
73551;BME280;61816;53.582;10.096;2023-05-12T06:09:12;54428.22;;;-144.73;77.67
73551;BME280;61816;53.582;10.096;2023-05-12T06:11:39;54417.97;;;-144.73;77.69
73551;BME280;61816;53.582;10.096;2023-05-12T06:14:05;54387.19;;;-144.73;77.80
73551;BME280;61816;53.582;10.096;2023-05-12T06:16:30;54366.66;;;-144.73;76.06
73551;BME280;61816;53.582;10.096;2023-05-12T06:18:55;54378.97;;;-144.73;77.31
73551;BME280;61816;53.582;10.096;2023-05-12T06:21:21;54407.69;;;-144.73;74.91
73551;BME280;61816;53.582;10.096;2023-05-12T06:23:46;54385.13;;;-144.73;74.79
73551;BME280;61816;53.582;10.096;2023-05-12T06:26:11;54399.50;;;-144.73;73.36
73551;BME280;61816;53.582;10.096;2023-05-12T06:28:37;54376.91;;;-144.73;74.62
73551;BME280;61816;53.582;10.096;2023-05-12T06:31:06;54381.00;;;-144.73;75.19
73551;BME280;61816;53.582;10.096;2023-05-12T06:33:31;54395.38;;;-144.73;71.97
73551;BME280;61816;53.582;10.096;2023-05-12T06:35:57;54411.81;;;-144.73;71.13
73551;BME280;61816;53.582;10.096;2023-05-12T06:38:22;54374.84;;;-144.73;70.57
73551;BME280;61816;53.582;10.096;2023-05-12T06:40:48;54370.75;;;-144.73;69.75
73551;BME280;61816;53.582;10.096;2023-05-12T06:43:13;54350.22;;;-144.73;70.66
73551;BME280;61816;53.582;10.096;2023-05-12T06:45:39;54358.44;;;-144.73;70.93
73551;BME280;61816;53.582;10.096;2023-05-12T06:48:06;54376.91;;;-144.73;69.74
73551;BME280;61816;53.582;10.096;2023-05-12T06:50:33;54354.34;;;-144.73;69.52
73551;BME280;61816;53.582;10.096;2023-05-12T06:52:58;54362.53;;;-144.73;68.44
73551;BME280;61816;53.582;10.096;2023-05-12T06:55:24;54395.38;;;-144.73;66.47
73551;BME280;61816;53.582;10.096;2023-05-12T06:57:49;54399.50;;;-144.73;68.13
73551;BME280;61816;53.582;10.096;2023-05-12T07:00:22;54407.69;;;-144.73;68.20
73551;BME280;61816;53.582;10.096;2023-05-12T07:02:47;54370.75;;;-144.73;68.17
73551;BME280;61816;53.582;10.096;2023-05-12T07:05:12;54364.59;;;-144.73;65.71
73551;BME280;61816;53.582;10.096;2023-05-12T07:07:38;54407.69;;;-144.73;66.02
73551;BME280;61816;53.582;10.096;2023-05-12T07:10:03;54366.66;;;-144.73;64.66
73551;BME280;61816;53.582;10.096;2023-05-12T07:12:30;54407.69;;;-144.73;64.76
73551;BME280;61816;53.582;10.096;2023-05-12T07:14:56;54358.44;;;-144.73;64.26
73551;BME280;61816;53.582;10.096;2023-05-12T07:17:22;54420.00;;;-144.73;63.32
73551;BME280;61816;53.582;10.096;2023-05-12T07:19:47;54342.03;;;-144.73;63.12
73551;BME280;61816;53.582;10.096;2023-05-12T07:22:13;54362.53;;;-144.73;62.22
73551;BME280;61816;53.582;10.096;2023-05-12T07:24:38;54317.38;;;-144.73;60.78
73551;BME280;61816;53.582;10.096;2023-05-12T07:27:04;54358.44;;;-144.73;61.76
73551;BME280;61816;53.582;10.096;2023-05-12T07:29:29;54329.72;;;-144.73;60.18
73551;BME280;61816;53.582;10.096;2023-05-12T07:31:55;54370.75;;;-144.73;61.09
73551;BME280;61816;53.582;10.096;2023-05-12T07:34:20;54309.19;;;-144.73;61.54
73551;BME280;61816;53.582;10.096;2023-05-12T07:36:45;54374.84;;;-144.73;59.84
73551;BME280;61816;53.582;10.096;2023-05-12T07:39:11;54325.59;;;-144.73;58.42
73551;BME280;61816;53.582;10.096;2023-05-12T07:41:39;54337.91;;;-144.73;59.71
73551;BME280;61816;53.582;10.096;2023-05-12T07:44:05;54378.97;;;-144.73;58.93
73551;BME280;61816;53.582;10.096;2023-05-12T07:46:31;54362.53;;;-144.73;58.73
73551;BME280;61816;53.582;10.096;2023-05-12T07:48:56;54381.00;;;-144.73;59.36
73551;BME280;61816;53.582;10.096;2023-05-12T07:51:22;54337.91;;;-144.73;58.17
73551;BME280;61816;53.582;10.096;2023-05-12T07:53:47;54350.22;;;-144.73;57.63
73551;BME280;61816;53.582;10.096;2023-05-12T07:56:12;54370.75;;;-144.73;57.03
73551;BME280;61816;53.582;10.096;2023-05-12T07:58:38;54354.34;;;-144.73;56.10
73551;BME280;61816;53.582;10.096;2023-05-12T08:01:03;54385.13;;;-144.73;57.61
73551;BME280;61816;53.582;10.096;2023-05-12T08:03:31;54337.91;;;-144.73;56.88
73551;BME280;61816;53.582;10.096;2023-05-12T08:05:57;54284.56;;;-144.73;56.66
73551;BME280;61816;53.582;10.096;2023-05-12T08:08:22;54372.81;;;-144.73;57.02
73551;BME280;61816;53.582;10.096;2023-05-12T08:10:48;54372.81;;;-144.73;57.46
73551;BME280;61816;53.582;10.096;2023-05-12T08:13:13;54337.91;;;-144.73;57.85
73551;BME280;61816;53.582;10.096;2023-05-12T08:15:38;54321.50;;;-144.73;57.88
73551;BME280;61816;53.582;10.096;2023-05-12T08:18:09;54383.06;;;-144.73;56.19
73551;BME280;61816;53.582;10.096;2023-05-12T08:20:35;54335.88;;;-144.73;55.95
73551;BME280;61816;53.582;10.096;2023-05-12T08:23:01;54331.75;;;-144.73;56.43
73551;BME280;61816;53.582;10.096;2023-05-12T08:25:26;54303.03;;;-144.73;55.16
73551;BME280;61816;53.582;10.096;2023-05-12T08:27:54;54329.72;;;-144.73;53.23
73551;BME280;61816;53.582;10.096;2023-05-12T08:30:21;54346.13;;;-144.73;53.04
73551;BME280;61816;53.582;10.096;2023-05-12T08:32:47;54305.06;;;-144.73;53.69
73551;BME280;61816;53.582;10.096;2023-05-12T08:35:12;54311.22;;;-144.73;54.07
73551;BME280;61816;53.582;10.096;2023-05-12T08:37:37;54333.81;;;-144.73;53.10
73551;BME280;61816;53.582;10.096;2023-05-12T08:40:10;54303.03;;;-144.73;52.46
73551;BME280;61816;53.582;10.096;2023-05-12T08:42:43;54305.06;;;-144.73;51.48
73551;BME280;61816;53.582;10.096;2023-05-12T08:45:09;54298.91;;;-144.73;51.89
73551;BME280;61816;53.582;10.096;2023-05-12T08:47:36;54317.38;;;-144.73;51.24
73551;BME280;61816;53.582;10.096;2023-05-12T08:50:03;54264.03;;;-144.73;48.71
73551;BME280;61816;53.582;10.096;2023-05-12T08:52:31;54292.75;;;-144.73;48.98
73551;BME280;61816;53.582;10.096;2023-05-12T08:54:57;54288.66;;;-144.73;47.88
73551;BME280;61816;53.582;10.096;2023-05-12T08:57:23;54251.72;;;-144.73;47.61
73551;BME280;61816;53.582;10.096;2023-05-12T08:59:52;54325.59;;;-144.73;46.42
73551;BME280;61816;53.582;10.096;2023-05-12T09:02:20;54342.03;;;-144.73;48.14
73551;BME280;61816;53.582;10.096;2023-05-12T09:04:47;54319.44;;;-144.73;46.21
73551;BME280;61816;53.582;10.096;2023-05-12T09:07:13;54280.44;;;-144.73;47.49
73551;BME280;61816;53.582;10.096;2023-05-12T09:09:43;54317.38;;;-144.73;44.60
73551;BME280;61816;53.582;10.096;2023-05-12T09:12:12;54251.72;;;-144.73;44.80
73551;BME280;61816;53.582;10.096;2023-05-12T09:14:39;54300.97;;;-144.73;43.29
73551;BME280;61816;53.582;10.096;2023-05-12T09:17:06;54288.66;;;-144.73;44.25
73551;BME280;61816;53.582;10.096;2023-05-12T09:19:31;54315.34;;;-144.73;41.99
73551;BME280;61816;53.582;10.096;2023-05-12T09:21:59;54284.56;;;-144.73;41.38
73551;BME280;61816;53.582;10.096;2023-05-12T09:24:35;54337.91;;;-144.73;41.71
73551;BME280;61816;53.582;10.096;2023-05-12T09:27:01;54292.75;;;-144.73;41.42
73551;BME280;61816;53.582;10.096;2023-05-12T09:29:28;54321.50;;;-144.73;40.65
73551;BME280;61816;53.582;10.096;2023-05-12T09:31:55;54284.56;;;-144.73;41.76
73551;BME280;61816;53.582;10.096;2023-05-12T09:34:32;54284.56;;;-144.73;40.65
73551;BME280;61816;53.582;10.096;2023-05-12T09:37:02;54280.44;;;-144.73;40.37
73551;BME280;61816;53.582;10.096;2023-05-12T09:39:28;54259.91;;;-144.73;40.16
73551;BME280;61816;53.582;10.096;2023-05-12T09:41:54;54280.44;;;-144.73;41.11
73551;BME280;61816;53.582;10.096;2023-05-12T09:44:20;54284.56;;;-144.73;40.78
73551;BME280;61816;53.582;10.096;2023-05-12T09:46:46;54296.88;;;-144.73;39.66
73551;BME280;61816;53.582;10.096;2023-05-12T09:49:16;54309.19;;;-144.73;40.82
73551;BME280;61816;53.582;10.096;2023-05-12T09:51:42;54276.34;;;-144.73;39.92
73551;BME280;61816;53.582;10.096;2023-05-12T09:54:07;54251.72;;;-144.73;39.35
73551;BME280;61816;53.582;10.096;2023-05-12T09:56:35;54259.91;;;-144.73;38.47
73551;BME280;61816;53.582;10.096;2023-05-12T09:59:03;54313.28;;;-144.73;37.88
73551;BME280;61816;53.582;10.096;2023-05-12T10:01:29;54251.72;;;-144.73;37.86
73551;BME280;61816;53.582;10.096;2023-05-12T10:03:56;54268.13;;;-144.73;39.26
73551;BME280;61816;53.582;10.096;2023-05-12T10:06:32;54288.66;;;-144.73;38.45
73551;BME280;61816;53.582;10.096;2023-05-12T10:09:18;54276.34;;;-144.73;39.38
73551;BME280;61816;53.582;10.096;2023-05-12T10:11:46;54251.72;;;-144.73;38.40
73551;BME280;61816;53.582;10.096;2023-05-12T10:14:12;54276.34;;;-144.73;37.92
73551;BME280;61816;53.582;10.096;2023-05-12T10:16:39;54237.34;;;-144.73;36.94
73551;BME280;61816;53.582;10.096;2023-05-12T10:19:05;54276.34;;;-144.73;36.84
73551;BME280;61816;53.582;10.096;2023-05-12T10:21:31;54280.44;;;-144.73;38.81
73551;BME280;61816;53.582;10.096;2023-05-12T10:23:57;54284.56;;;-144.73;37.38
73551;BME280;61816;53.582;10.096;2023-05-12T10:26:23;54313.28;;;-144.73;37.94
73551;BME280;61816;53.582;10.096;2023-05-12T10:28:49;54317.38;;;-144.73;37.00
73551;BME280;61816;53.582;10.096;2023-05-12T10:31:15;54309.19;;;-144.73;36.90
73551;BME280;61816;53.582;10.096;2023-05-12T10:33:41;54298.91;;;-144.73;36.39
73551;BME280;61816;53.582;10.096;2023-05-12T10:36:16;54300.97;;;-144.73;35.54
73551;BME280;61816;53.582;10.096;2023-05-12T10:38:42;54276.34;;;-144.73;35.38
73551;BME280;61816;53.582;10.096;2023-05-12T10:41:08;54245.56;;;-144.73;34.07
73551;BME280;61816;53.582;10.096;2023-05-12T10:43:41;54264.03;;;-144.73;33.73
73551;BME280;61816;53.582;10.096;2023-05-12T10:46:18;54276.34;;;-144.73;34.48
73551;BME280;61816;53.582;10.096;2023-05-12T10:49:05;54268.13;;;-144.73;34.48
73551;BME280;61816;53.582;10.096;2023-05-12T10:51:33;54255.81;;;-144.73;33.87
73551;BME280;61816;53.582;10.096;2023-05-12T10:54:04;54280.44;;;-144.73;33.91
73551;BME280;61816;53.582;10.096;2023-05-12T10:56:39;54194.25;;;-144.73;31.05
73551;BME280;61816;53.582;10.096;2023-05-12T10:59:24;54342.03;;;-144.73;30.73
73551;BME280;61816;53.582;10.096;2023-05-12T11:02:14;54227.09;;;-144.73;29.55
73551;BME280;61816;53.582;10.096;2023-05-12T11:05:02;54264.03;;;-144.73;30.93
73551;BME280;61816;53.582;10.096;2023-05-12T11:07:31;54210.66;;;-144.73;34.36
73551;BME280;61816;53.582;10.096;2023-05-12T11:09:58;54243.50;;;-144.73;34.45
73551;BME280;61816;53.582;10.096;2023-05-12T11:12:31;54202.44;;;-144.73;35.30
73551;BME280;61816;53.582;10.096;2023-05-12T11:15:02;54222.97;;;-144.73;36.17
73551;BME280;61816;53.582;10.096;2023-05-12T11:17:27;54220.94;;;-144.73;33.69
73551;BME280;61816;53.582;10.096;2023-05-12T11:19:53;54259.91;;;-144.73;32.73
73551;BME280;61816;53.582;10.096;2023-05-12T11:22:20;54284.56;;;-144.73;32.61
73551;BME280;61816;53.582;10.096;2023-05-12T11:24:47;54278.41;;;-144.73;32.24
73551;BME280;61816;53.582;10.096;2023-05-12T11:27:14;54206.56;;;-144.73;30.11
73551;BME280;61816;53.582;10.096;2023-05-12T11:29:41;54218.88;;;-144.73;32.28
73551;BME280;61816;53.582;10.096;2023-05-12T11:32:10;54206.56;;;-144.73;33.44
73551;BME280;61816;53.582;10.096;2023-05-12T11:34:37;54231.19;;;-144.73;32.83
73551;BME280;61816;53.582;10.096;2023-05-12T11:37:03;54227.09;;;-144.73;32.76
73551;BME280;61816;53.582;10.096;2023-05-12T11:39:30;54235.28;;;-144.73;32.55
73551;BME280;61816;53.582;10.096;2023-05-12T11:42:06;54212.72;;;-144.73;32.18
73551;BME280;61816;53.582;10.096;2023-05-12T11:44:35;54192.19;;;-144.73;31.77
73551;BME280;61816;53.582;10.096;2023-05-12T11:47:02;54222.97;;;-144.73;31.70
73551;BME280;61816;53.582;10.096;2023-05-12T11:49:53;54214.78;;;-144.73;30.27
73551;BME280;61816;53.582;10.096;2023-05-12T11:52:21;54194.25;;;-144.73;30.02
73551;BME280;61816;53.582;10.096;2023-05-12T11:54:52;54233.25;;;-144.73;30.82
73551;BME280;61816;53.582;10.096;2023-05-12T11:57:28;54177.81;;;-144.73;29.37
73551;BME280;61816;53.582;10.096;2023-05-12T12:00:04;54202.44;;;-144.73;30.38
73551;BME280;61816;53.582;10.096;2023-05-12T12:02:31;54190.13;;;-144.73;30.15
73551;BME280;61816;53.582;10.096;2023-05-12T12:04:57;54214.78;;;-144.73;29.18
73551;BME280;61816;53.582;10.096;2023-05-12T12:07:35;54218.88;;;-144.73;29.34
73551;BME280;61816;53.582;10.096;2023-05-12T12:10:14;54194.25;;;-144.73;29.14
73551;BME280;61816;53.582;10.096;2023-05-12T12:12:41;54181.94;;;-144.73;28.72
73551;BME280;61816;53.582;10.096;2023-05-12T12:15:07;54227.09;;;-144.73;29.51
73551;BME280;61816;53.582;10.096;2023-05-12T12:17:33;54255.81;;;-144.73;30.41
73551;BME280;61816;53.582;10.096;2023-05-12T12:19:58;54255.81;;;-144.73;31.32
73551;BME280;61816;53.582;10.096;2023-05-12T12:22:24;54220.94;;;-144.73;32.36
73551;BME280;61816;53.582;10.096;2023-05-12T12:24:49;54214.78;;;-144.73;32.63
73551;BME280;61816;53.582;10.096;2023-05-12T12:27:15;54222.97;;;-144.73;31.89